Time;durP1;ratioP1;P1;durP2;ratioP2;P2;SDS_P1;SDS_P2;PMS_P1;PMS_P2;Temp;Humidity;BMP_temperature;BMP_pressure;BME280_temperature;BME280_humidity;BME280_pressure;Samples;Min_cycle;Max_cycle;Signal;HPM_P1;HPM_P2
2022/09/04 00:00:02;;;;;;;6.72;5.43;;;17.60;95.40;;;;;;5020252;28;20388;-72
2022/09/04 00:02:58;;;;;;;5.57;5.05;;;17.60;95.90;;;;;;5022232;28;20423;-73
2022/09/04 00:05:34;;;;;;;5.60;4.95;;;17.50;95.80;;;;;;5016623;28;20471;-72
2022/09/04 00:08:30;;;;;;;7.40;4.90;;;17.50;95.80;;;;;;5013373;28;20385;-73
2022/09/04 00:11:05;;;;;;;7.50;4.90;;;17.60;95.10;;;;;;5013116;28;20381;-73
2022/09/04 00:13:56;;;;;;;5.55;4.90;;;17.60;95.00;;;;;;5012899;28;20475;-74
2022/09/04 00:16:31;;;;;;;5.38;4.57;;;17.50;95.20;;;;;;5013142;28;20460;-74
2022/09/04 00:19:20;;;;;;;5.32;4.93;;;17.50;95.80;;;;;;5013095;28;20451;-72
2022/09/04 00:21:54;;;;;;;5.95;5.28;;;17.50;96.10;;;;;;5012734;28;20408;-73
2022/09/04 00:24:38;;;;;;;7.90;5.00;;;17.50;96.60;;;;;;5012989;28;20408;-72
2022/09/04 00:27:23;;;;;;;5.57;5.00;;;17.40;96.90;;;;;;5012802;28;20385;-72
2022/09/04 00:30:10;;;;;;;5.50;5.00;;;17.40;96.70;;;;;;5013073;28;20377;-72
2022/09/04 00:32:50;;;;;;;5.70;4.80;;;17.40;97.20;;;;;;5013054;28;20463;-74
2022/09/04 00:35:43;;;;;;;5.25;4.75;;;17.40;97.40;;;;;;5013136;28;20480;-73
2022/09/04 00:38:27;;;;;;;5.40;4.90;;;17.40;97.40;;;;;;5012979;28;20387;-73
2022/09/04 00:41:19;;;;;;;5.70;5.03;;;17.40;97.60;;;;;;5012571;28;20396;-73
2022/09/04 00:44:22;;;;;;;6.22;5.00;;;17.30;98.20;;;;;;5012627;28;20857;-73
2022/09/04 00:47:27;;;;;;;7.00;4.80;;;17.30;98.40;;;;;;5012543;28;20474;-73
2022/09/04 00:49:59;;;;;;;5.15;4.70;;;17.30;98.20;;;;;;4996835;28;20399;-73
2022/09/04 00:52:55;;;;;;;5.45;4.95;;;17.30;98.00;;;;;;5012487;28;20892;-73
2022/09/04 00:55:49;;;;;;;6.35;4.93;;;17.30;98.40;;;;;;5012692;28;20397;-72
2022/09/04 00:58:47;;;;;;;6.55;5.30;;;17.20;98.80;;;;;;5012608;28;20896;-73
2022/09/04 01:01:20;;;;;;;7.18;5.53;;;17.20;99.50;;;;;;5001186;28;20424;-72
2022/09/04 01:04:07;;;;;;;5.90;5.00;;;17.20;99.50;;;;;;5012329;28;20392;-72
2022/09/04 01:06:58;;;;;;;7.68;5.47;;;17.20;99.70;;;;;;5010572;28;20459;-72
2022/09/04 01:09:31;;;;;;;7.20;4.97;;;17.20;99.90;;;;;;5012374;28;20882;-72
2022/09/04 01:12:09;;;;;;;5.10;4.60;;;17.20;99.80;;;;;;5012085;28;20749;-73
2022/09/04 01:14:54;;;;;;;6.50;4.75;;;17.30;99.30;;;;;;5012345;28;20455;-72
2022/09/04 01:17:22;;;;;;;5.40;4.90;;;17.20;99.80;;;;;;5012375;28;20464;-74
2022/09/04 01:19:56;;;;;;;5.20;4.70;;;17.20;99.90;;;;;;5012767;28;20377;-73
2022/09/04 01:22:41;;;;;;;6.90;5.03;;;17.20;99.90;;;;;;5012550;28;20862;-74
2022/09/04 01:25:21;;;;;;;6.50;5.50;;;17.20;99.50;;;;;;5012769;28;20401;-73
2022/09/04 01:28:12;;;;;;;5.70;5.20;;;17.20;99.90;;;;;;5012560;28;20397;-73
2022/09/04 01:31:05;;;;;;;6.60;4.85;;;17.20;99.90;;;;;;5012437;28;20751;-72
2022/09/04 01:33:53;;;;;;;5.40;4.90;;;17.20;99.90;;;;;;5012075;28;20377;-73
2022/09/04 01:36:43;;;;;;;5.70;5.07;;;17.20;99.90;;;;;;5012241;28;20723;-73
2022/09/04 01:39:09;;;;;;;6.03;5.53;;;17.20;99.90;;;;;;5012495;28;20446;-73
2022/09/04 01:41:38;;;;;;;6.35;5.50;;;17.20;99.90;;;;;;5013185;28;20517;-73
2022/09/04 01:44:09;;;;;;;6.70;5.60;;;17.20;99.80;;;;;;5012925;28;20870;-73
2022/09/04 01:46:44;;;;;;;5.57;5.05;;;17.10;99.90;;;;;;5018694;28;20448;-73
2022/09/04 01:49:12;;;;;;;6.28;5.32;;;17.10;99.90;;;;;;5022624;28;20389;-72
2022/09/04 01:51:50;;;;;;;5.70;5.20;;;17.10;99.90;;;;;;5019045;28;20400;-72
2022/09/04 01:54:27;;;;;;;6.22;5.63;;;17.00;99.90;;;;;;5009588;28;20400;-73
2022/09/04 01:57:08;;;;;;;6.00;5.40;;;17.00;99.90;;;;;;5011584;28;20492;-72
2022/09/04 02:00:09;;;;;;;5.97;5.35;;;17.00;99.90;;;;;;5009905;28;20396;-72
2022/09/04 02:02:59;;;;;;;7.80;5.80;;;16.90;99.90;;;;;;4992225;28;20392;-72
2022/09/04 02:06:00;;;;;;;6.40;5.80;;;16.90;99.90;;;;;;5011565;28;20393;-72
2022/09/04 02:08:54;;;;;;;5.93;5.32;;;16.90;99.90;;;;;;5010379;28;20396;-72
2022/09/04 02:11:26;;;;;;;6.13;5.60;;;16.90;99.90;;;;;;5010867;28;20878;-72
2022/09/04 02:13:55;;;;;;;6.30;5.70;;;16.90;99.90;;;;;;5010929;28;20385;-72
2022/09/04 02:16:43;;;;;;;7.23;6.23;;;16.90;99.90;;;;;;5011208;28;20466;-74
2022/09/04 02:19:36;;;;;;;10.20;6.25;;;16.80;99.90;;;;;;5011463;28;20417;-74
2022/09/04 02:22:27;;;;;;;10.05;6.32;;;16.80;99.90;;;;;;5011012;28;20455;-73
2022/09/04 02:25:17;;;;;;;9.25;6.70;;;16.80;99.90;;;;;;5011589;28;20395;-73
2022/09/04 02:28:18;;;;;;;6.85;6.25;;;16.80;99.90;;;;;;5011472;28;20482;-73
2022/09/04 02:31:11;;;;;;;6.40;5.80;;;16.70;99.90;;;;;;5006363;28;20747;-73
2022/09/04 02:34:03;;;;;;;7.50;6.60;;;16.70;99.90;;;;;;5010669;28;20443;-73
2022/09/04 02:36:33;;;;;;;7.07;6.37;;;16.80;99.90;;;;;;5010706;28;20392;-72
2022/09/04 02:39:20;;;;;;;9.27;7.00;;;16.70;99.90;;;;;;5010544;28;20750;-72
2022/09/04 02:42:02;;;;;;;7.97;6.45;;;16.80;99.90;;;;;;5010662;28;20412;-72
2022/09/04 02:44:40;;;;;;;8.00;6.80;;;16.70;99.90;;;;;;5010341;28;20396;-73
2022/09/04 02:47:33;;;;;;;7.97;7.10;;;16.70;99.90;;;;;;5010437;28;20496;-73
2022/09/04 02:50:25;;;;;;;7.60;6.90;;;16.70;99.90;;;;;;5010474;28;20392;-73
2022/09/04 02:53:09;;;;;;;7.55;6.85;;;16.80;99.90;;;;;;5010488;28;20385;-73
2022/09/04 02:55:56;;;;;;;7.70;6.90;;;16.70;99.90;;;;;;5010698;28;20381;-73
2022/09/04 02:58:38;;;;;;;8.48;7.55;;;16.70;99.90;;;;;;5011540;28;20395;-73
2022/09/04 03:01:26;;;;;;;8.77;7.43;;;16.70;99.90;;;;;;5011355;28;20400;-72
2022/09/04 03:04:13;;;;;;;9.68;7.82;;;16.70;99.90;;;;;;5013110;28;20914;-73
2022/09/04 03:06:53;;;;;;;8.63;7.73;;;16.60;99.90;;;;;;5013640;28;20860;-73
2022/09/04 03:09:31;;;;;;;8.27;7.47;;;16.60;99.90;;;;;;5029914;28;20572;-74
2022/09/04 03:12:10;;;;;;;10.48;8.15;;;16.60;99.90;;;;;;5015051;28;20393;-73
2022/09/04 03:14:45;;;;;;;11.00;7.80;;;16.60;99.90;;;;;;5015259;28;20397;-73
2022/09/04 03:17:15;;;;;;;9.40;7.95;;;16.60;99.90;;;;;;5015161;28;20381;-73
2022/09/04 03:19:53;;;;;;;9.23;8.10;;;16.50;99.90;;;;;;5023234;28;20419;-72
2022/09/04 03:22:25;;;;;;;7.70;7.00;;;16.60;99.90;;;;;;5022476;28;20495;-72
2022/09/04 03:25:30;;;;;;;9.13;7.80;;;16.50;99.90;;;;;;5018345;28;20451;-73
2022/09/04 03:27:55;;;;;;;7.85;7.05;;;16.50;99.90;;;;;;5014977;28;20380;-73
2022/09/04 03:30:21;;;;;;;7.80;7.10;;;16.60;99.90;;;;;;5014594;28;20380;-73
2022/09/04 03:33:02;;;;;;;8.52;6.93;;;16.50;99.90;;;;;;5014132;28;20750;-72
2022/09/04 03:35:41;;;;;;;7.93;6.97;;;16.50;99.90;;;;;;5029803;28;20484;-73
2022/09/04 03:38:33;;;;;;;7.78;6.97;;;16.50;99.90;;;;;;5014244;28;20385;-73
2022/09/04 03:41:11;;;;;;;8.73;6.80;;;16.50;99.90;;;;;;5014578;28;20405;-72
2022/09/04 03:44:10;;;;;;;7.75;7.00;;;16.40;99.90;;;;;;5031851;23;20437;-71
2022/09/04 03:46:55;;;;;;;7.70;7.00;;;16.50;99.90;;;;;;5013180;28;20404;-72
2022/09/04 03:49:26;;;;;;;8.80;7.90;;;16.50;99.90;;;;;;5013092;28;20384;-73
2022/09/04 03:52:04;;;;;;;7.72;6.80;;;16.40;99.90;;;;;;5013153;28;20381;-72
2022/09/04 03:54:37;;;;;;;10.35;7.50;;;16.50;99.90;;;;;;5013289;28;20885;-72
2022/09/04 03:57:06;;;;;;;8.63;7.13;;;16.40;99.90;;;;;;5012923;28;20389;-73
2022/09/04 03:59:53;;;;;;;10.57;7.20;;;16.50;99.90;;;;;;5012907;28;20403;-71
2022/09/04 04:02:37;;;;;;;8.48;7.47;;;16.40;99.90;;;;;;5012947;28;20432;-72
2022/09/04 04:05:15;;;;;;;9.10;6.95;;;16.50;99.90;;;;;;5012796;28;20873;-72
2022/09/04 04:08:18;;;;;;;7.50;6.72;;;16.50;99.90;;;;;;5013173;28;20385;-71
2022/09/04 04:10:55;;;;;;;7.80;6.68;;;16.50;99.90;;;;;;5013035;28;20797;-71
2022/09/04 04:13:34;;;;;;;7.00;6.25;;;16.50;99.90;;;;;;5012551;28;20387;-72
2022/09/04 04:16:19;;;;;;;7.40;6.40;;;16.40;99.90;;;;;;5012667;28;20385;-71
2022/09/04 04:19:14;;;;;;;7.47;6.68;;;16.40;99.90;;;;;;5012676;28;20377;-71
2022/09/04 04:21:54;;;;;;;8.57;6.60;;;16.40;99.90;;;;;;5012506;28;20412;-71
2022/09/04 04:24:29;;;;;;;6.85;6.20;;;16.40;99.90;;;;;;5012462;28;20396;-71
2022/09/04 04:27:24;;;;;;;7.75;6.50;;;16.30;99.90;;;;;;5012658;28;20396;-71
2022/09/04 04:30:06;;;;;;;6.80;6.10;;;16.30;99.90;;;;;;5012482;28;20919;-71
2022/09/04 04:32:43;;;;;;;9.38;7.00;;;16.30;99.90;;;;;;5012206;28;20388;-72
2022/09/04 04:35:19;;;;;;;10.30;7.18;;;16.30;99.90;;;;;;5012252;28;20454;-71
2022/09/04 04:37:56;;;;;;;7.70;6.90;;;16.30;99.90;;;;;;5012271;28;20384;-72
2022/09/04 04:40:52;;;;;;;10.10;6.60;;;16.40;99.90;;;;;;5012128;28;20429;-71
2022/09/04 04:43:44;;;;;;;10.07;7.25;;;16.30;99.90;;;;;;5012567;28;20393;-72
2022/09/04 04:46:18;;;;;;;6.85;6.15;;;16.20;99.90;;;;;;5012272;28;20396;-71
2022/09/04 04:48:52;;;;;;;9.10;6.82;;;16.30;99.90;;;;;;5010870;28;20389;-72
2022/09/04 04:51:52;;;;;;;7.35;6.65;;;16.30;99.90;;;;;;5011605;28;20747;-70
2022/09/04 04:54:52;;;;;;;7.70;6.30;;;16.30;99.90;;;;;;5011934;28;20462;-71
2022/09/04 04:57:45;;;;;;;7.40;6.70;;;16.40;99.90;;;;;;5011920;28;20377;-72
2022/09/04 05:00:18;;;;;;;7.30;6.60;;;16.30;99.90;;;;;;5011981;28;20474;-71
2022/09/04 05:03:00;;;;;;;7.55;6.63;;;16.30;99.90;;;;;;5012231;28;20436;-70
2022/09/04 05:05:54;;;;;;;7.30;6.27;;;16.30;99.90;;;;;;5011947;28;20389;-71
2022/09/04 05:08:46;;;;;;;7.00;6.30;;;16.40;99.90;;;;;;5012082;28;20373;-72
2022/09/04 05:11:21;;;;;;;8.65;6.75;;;16.40;99.90;;;;;;5011482;28;20615;-71
2022/09/04 05:13:58;;;;;;;7.40;6.70;;;16.40;99.90;;;;;;5011404;28;20485;-72
2022/09/04 05:16:49;;;;;;;7.40;6.70;;;16.40;99.90;;;;;;5011576;28;20870;-71
2022/09/04 05:19:39;;;;;;;7.43;6.63;;;16.50;99.90;;;;;;5011479;28;20400;-71
2022/09/04 05:22:34;;;;;;;7.40;6.53;;;16.50;99.90;;;;;;5011107;28;20408;-71
2022/09/04 05:25:15;;;;;;;8.23;6.40;;;16.60;99.90;;;;;;5011360;28;20389;-72
2022/09/04 05:28:19;;;;;;;6.50;5.90;;;16.60;99.90;;;;;;5011128;28;20381;-71
2022/09/04 05:30:51;;;;;;;7.20;6.50;;;16.60;99.90;;;;;;5010747;28;20415;-71
2022/09/04 05:33:38;;;;;;;7.88;6.05;;;16.70;99.90;;;;;;5010985;28;20504;-70
2022/09/04 05:36:31;;;;;;;7.90;6.28;;;16.70;99.90;;;;;;5011275;28;20885;-70
2022/09/04 05:39:22;;;;;;;8.48;6.45;;;16.90;99.90;;;;;;5011322;28;20389;-71
2022/09/04 05:41:56;;;;;;;8.63;6.28;;;16.90;99.10;;;;;;5011022;28;20405;-71
2022/09/04 05:44:51;;;;;;;13.00;6.60;;;17.00;97.90;;;;;;5011074;28;20397;-71
2022/09/04 05:47:55;;;;;;;6.70;6.10;;;17.00;97.40;;;;;;5008072;28;20389;-71
2022/09/04 05:50:37;;;;;;;8.70;6.03;;;17.10;96.60;;;;;;5002458;28;20469;-71
2022/09/04 05:54:01;;;;;;;6.73;6.10;;;17.10;95.10;;;;;;5011052;28;20434;-71
2022/09/04 05:56:51;;;;;;;9.10;6.20;;;17.20;93.90;;;;;;4950444;28;20516;-71
2022/09/04 05:59:30;;;;;;;7.30;6.45;;;17.30;93.00;;;;;;4950302;28;20393;-72
2022/09/04 06:02:25;;;;;;;6.80;6.10;;;17.30;93.00;;;;;;4993677;28;20420;-71
2022/09/04 06:05:02;;;;;;;6.55;5.93;;;17.40;91.80;;;;;;5011025;28;20389;-72
2022/09/04 06:07:36;;;;;;;7.73;6.03;;;17.40;91.60;;;;;;5011000;28;20761;-72
2022/09/04 06:10:39;;;;;;;7.17;6.20;;;17.40;91.20;;;;;;5010875;28;20392;-72
2022/09/04 06:13:17;;;;;;;7.70;6.55;;;17.50;90.20;;;;;;5010680;28;20781;-72
2022/09/04 06:15:42;;;;;;;9.02;6.50;;;17.60;89.40;;;;;;5010955;28;20951;-73
2022/09/04 06:18:20;;;;;;;8.50;5.93;;;17.70;88.70;;;;;;5010880;28;20389;-72
2022/09/04 06:21:20;;;;;;;9.55;5.90;;;17.80;87.30;;;;;;5010614;28;20412;-71
2022/09/04 06:23:49;;;;;;;8.73;6.80;;;17.80;87.20;;;;;;4978752;28;20395;-71
2022/09/04 06:26:28;;;;;;;7.55;6.55;;;17.90;85.80;;;;;;5010856;28;20397;-72
2022/09/04 06:29:19;;;;;;;9.45;6.28;;;17.90;86.10;;;;;;5010783;28;20381;-72
2022/09/04 06:32:16;;;;;;;7.25;5.90;;;18.10;84.10;;;;;;5010750;28;20789;-72
2022/09/04 06:35:18;;;;;;;8.10;6.80;;;18.20;82.60;;;;;;5010576;28;20397;-72
2022/09/04 06:38:21;;;;;;;6.70;6.10;;;18.30;82.00;;;;;;5010629;28;20388;-71
2022/09/04 06:40:49;;;;;;;6.80;6.10;;;18.40;80.50;;;;;;5012970;28;20461;-72
2022/09/04 06:43:35;;;;;;;9.73;6.55;;;18.40;80.50;;;;;;5012951;28;20494;-72
2022/09/04 06:46:27;;;;;;;8.05;6.20;;;18.40;80.60;;;;;;5014033;28;20397;-71
2022/09/04 06:49:26;;;;;;;7.50;6.35;;;18.40;80.10;;;;;;5014176;28;20385;-72
2022/09/04 06:52:18;;;;;;;8.20;6.32;;;18.50;79.40;;;;;;5013869;28;20439;-71
2022/09/04 06:54:55;;;;;;;9.10;6.60;;;18.60;78.60;;;;;;5014140;28;20809;-71
2022/09/04 06:57:38;;;;;;;7.85;6.55;;;18.70;77.60;;;;;;5014090;28;20733;-71
2022/09/04 07:00:11;;;;;;;7.15;6.38;;;18.80;76.40;;;;;;5013986;28;20433;-71
2022/09/04 07:02:51;;;;;;;6.47;5.70;;;18.90;74.70;;;;;;5013898;28;20519;-70
2022/09/04 07:05:44;;;;;;;7.18;5.88;;;19.00;73.90;;;;;;5014167;28;20504;-71
2022/09/04 07:08:13;;;;;;;7.80;6.10;;;19.10;72.90;;;;;;5014119;28;20412;-71
2022/09/04 07:10:44;;;;;;;6.88;5.97;;;19.30;70.10;;;;;;5013957;28;20397;-71
2022/09/04 07:13:42;;;;;;;6.82;6.20;;;19.30;70.10;;;;;;5014105;28;20399;-71
2022/09/04 07:16:32;;;;;;;8.80;6.30;;;19.40;70.00;;;;;;5013823;28;20381;-72
2022/09/04 07:19:24;;;;;;;9.20;5.82;;;19.50;69.30;;;;;;5013748;28;20483;-71
2022/09/04 07:22:04;;;;;;;6.20;5.60;;;19.60;68.40;;;;;;5013514;28;20886;-72
2022/09/04 07:24:37;;;;;;;8.10;5.95;;;19.80;66.30;;;;;;5013949;28;20783;-72
2022/09/04 07:27:34;;;;;;;7.05;5.50;;;19.90;64.70;;;;;;5014002;28;20389;-72
2022/09/04 07:30:09;;;;;;;8.35;5.45;;;20.00;64.30;;;;;;5015567;28;20694;-72
2022/09/04 07:32:42;;;;;;;5.97;5.28;;;20.20;62.00;;;;;;5013469;28;20400;-72
2022/09/04 07:35:34;;;;;;;6.97;5.82;;;20.20;60.10;;;;;;5013305;28;20373;-71
2022/09/04 07:38:17;;;;;;;7.70;5.63;;;20.40;58.50;;;;;;5013603;28;20407;-71
2022/09/04 07:40:57;;;;;;;6.72;5.88;;;20.50;58.30;;;;;;5013543;28;20404;-72
2022/09/04 07:43:35;;;;;;;6.35;5.75;;;20.40;58.10;;;;;;5014697;28;20872;-72
2022/09/04 07:46:23;;;;;;;10.40;5.75;;;20.40;58.50;;;;;;5013451;28;20517;-72
2022/09/04 07:49:04;;;;;;;8.13;6.47;;;20.40;57.90;;;;;;5013366;28;20381;-72
2022/09/04 07:51:41;;;;;;;6.25;5.50;;;20.70;56.10;;;;;;5012377;28;20388;-72
2022/09/04 07:54:13;;;;;;;7.20;5.67;;;20.80;56.00;;;;;;5013111;28;20404;-72
2022/09/04 07:57:13;;;;;;;6.33;5.60;;;20.80;55.10;;;;;;5014774;28;20463;-72
2022/09/04 07:59:52;;;;;;;7.32;5.10;;;21.00;53.50;;;;;;5013761;28;20495;-71
2022/09/04 08:02:36;;;;;;;8.73;5.28;;;21.10;52.60;;;;;;5012724;28;20462;-72
2022/09/04 08:05:13;;;;;;;6.82;5.00;;;21.10;52.80;;;;;;5012917;28;20376;-72
2022/09/04 08:07:39;;;;;;;6.72;5.00;;;21.30;52.30;;;;;;5013371;28;20945;-72
2022/09/04 08:10:26;;;;;;;6.40;5.20;;;21.50;50.50;;;;;;5014008;28;20420;-72
2022/09/04 08:13:12;;;;;;;5.72;5.00;;;21.50;49.30;;;;;;5014357;28;20753;-72
2022/09/04 08:16:07;;;;;;;6.50;4.75;;;21.50;49.40;;;;;;5013813;28;20471;-72
2022/09/04 08:18:57;;;;;;;8.23;5.13;;;21.60;49.20;;;;;;5013508;28;20397;-72
2022/09/04 08:21:38;;;;;;;7.43;4.90;;;21.70;48.70;;;;;;5013253;28;20417;-71
2022/09/04 08:24:21;;;;;;;7.95;5.45;;;21.80;48.00;;;;;;5013001;28;20377;-72
2022/09/04 08:27:05;;;;;;;6.28;4.65;;;22.00;47.50;;;;;;5012691;28;20742;-71
2022/09/04 08:30:03;;;;;;;7.05;4.60;;;22.10;45.40;;;;;;5012570;28;20472;-71
2022/09/04 08:33:08;;;;;;;5.43;4.93;;;22.20;45.10;;;;;;5012417;28;20470;-72
2022/09/04 08:35:52;;;;;;;9.02;5.50;;;22.20;44.80;;;;;;5012408;28;20415;-72
2022/09/04 08:38:39;;;;;;;5.80;4.80;;;22.40;44.10;;;;;;5011163;28;20890;-73
2022/09/04 08:41:21;;;;;;;6.30;5.13;;;22.40;43.70;;;;;;5011780;28;20417;-71
2022/09/04 08:44:09;;;;;;;6.25;5.10;;;22.50;42.50;;;;;;5011956;28;20397;-71
2022/09/04 08:46:47;;;;;;;7.30;4.93;;;22.50;43.90;;;;;;5012092;28;20377;-70
2022/09/04 08:49:18;;;;;;;8.30;4.77;;;22.50;42.50;;;;;;5012213;28;20391;-71
2022/09/04 08:51:47;;;;;;;8.40;4.82;;;22.70;42.20;;;;;;5011973;28;20388;-72
2022/09/04 08:54:18;;;;;;;8.15;4.95;;;22.80;41.10;;;;;;5011966;28;20734;-71
2022/09/04 08:57:02;;;;;;;7.63;5.18;;;22.70;41.20;;;;;;5011738;28;20396;-70
2022/09/04 08:59:52;;;;;;;5.78;4.78;;;22.70;41.70;;;;;;5011596;28;20387;-71
2022/09/04 09:02:20;;;;;;;9.32;5.53;;;22.80;41.30;;;;;;5011209;28;20881;-71
2022/09/04 09:05:24;;;;;;;6.50;4.70;;;22.80;41.20;;;;;;5011705;28;20392;-71
2022/09/04 09:08:02;;;;;;;8.52;5.03;;;23.00;40.00;;;;;;5011682;28;20380;-71
2022/09/04 09:11:06;;;;;;;7.72;4.93;;;23.10;39.30;;;;;;5011612;28;20397;-71
2022/09/04 09:13:37;;;;;;;8.82;5.50;;;23.30;38.40;;;;;;5011383;28;20392;-72
2022/09/04 09:16:17;;;;;;;6.63;5.57;;;23.30;38.20;;;;;;5011645;28;20385;-71
2022/09/04 09:18:52;;;;;;;9.73;4.90;;;23.40;38.20;;;;;;5011298;28;20485;-72
2022/09/04 09:21:29;;;;;;;5.55;4.90;;;23.40;37.90;;;;;;5011480;28;20488;-70
2022/09/04 09:24:29;;;;;;;8.40;4.90;;;23.30;38.00;;;;;;5012044;28;20395;-71
2022/09/04 09:27:10;;;;;;;7.13;5.68;;;23.40;37.50;;;;;;5012407;28;20389;-71
2022/09/04 09:29:47;;;;;;;8.27;5.57;;;23.40;37.90;;;;;;5011050;28;20381;-71
2022/09/04 09:32:52;;;;;;;8.20;4.85;;;23.50;37.40;;;;;;5010485;28;20503;-71
2022/09/04 09:35:50;;;;;;;6.38;5.55;;;23.80;36.30;;;;;;5011712;28;20482;-72
2022/09/04 09:38:59;;;;;;;8.70;5.53;;;23.90;34.70;;;;;;5011361;28;20385;-71
2022/09/04 09:41:42;;;;;;;6.85;5.50;;;24.10;34.20;;;;;;5010842;28;20405;-72
2022/09/04 09:44:20;;;;;;;8.18;5.38;;;24.10;34.10;;;;;;5024437;23;20447;-74
2022/09/04 09:47:16;;;;;;;6.22;4.57;;;24.10;33.70;;;;;;5012789;28;20900;-74
2022/09/04 09:50:29;;;;;;;5.80;4.63;;;24.10;34.10;;;;;;5011380;28;20403;-73
2022/09/04 09:53:25;;;;;;;7.80;5.77;;;24.30;33.40;;;;;;4959726;28;20396;-76
2022/09/04 09:56:02;;;;;;;8.83;6.17;;;24.50;32.30;;;;;;5012412;28;20396;-74
2022/09/04 09:59:06;;;;;;;6.25;5.13;;;24.50;32.00;;;;;;5012699;28;20408;-74
2022/09/04 10:01:37;;;;;;;10.13;5.00;;;24.30;32.30;;;;;;5012035;28;20807;-74
2022/09/04 10:04:38;;;;;;;6.63;4.47;;;24.30;32.60;;;;;;5012275;28;20400;-73
2022/09/04 10:07:32;;;;;;;6.35;4.30;;;24.40;32.60;;;;;;5012345;28;20377;-75
2022/09/04 10:10:35;;;;;;;5.38;4.10;;;24.60;32.30;;;;;;5012696;28;20416;-73
2022/09/04 10:13:39;;;;;;;5.97;3.90;;;24.90;30.70;;;;;;5011040;28;20385;-72
2022/09/04 10:16:44;;;;;;;7.20;4.72;;;25.10;29.50;;;;;;5016046;28;20928;-73
2022/09/04 10:19:37;;;;;;;6.70;4.50;;;25.10;28.80;;;;;;5014301;28;20745;-74
2022/09/04 10:22:44;;;;;;;6.00;4.50;;;25.00;28.80;;;;;;5015383;28;20405;-74
2022/09/04 10:25:38;;;;;;;6.20;4.45;;;24.90;29.40;;;;;;5015437;28;20413;-74
2022/09/04 10:28:15;;;;;;;6.80;5.00;;;25.10;29.00;;;;;;5015499;28;20460;-75
2022/09/04 10:30:59;;;;;;;10.60;5.77;;;25.10;28.50;;;;;;5015478;28;20384;-73
2022/09/04 10:33:45;;;;;;;6.85;4.13;;;25.10;28.30;;;;;;5015470;28;20383;-72
2022/09/04 10:36:39;;;;;;;7.75;4.40;;;25.20;27.80;;;;;;5015154;28;20384;-72
2022/09/04 10:42:31;;;;;;;6.32;4.00;;;25.60;26.20;;;;;;5015196;28;20454;-74
2022/09/04 10:45:18;;;;;;;6.63;4.72;;;25.70;25.70;;;;;;5015302;28;20458;-73
2022/09/04 10:48:17;;;;;;;5.80;4.20;;;25.60;25.60;;;;;;5015395;28;20376;-73
2022/09/04 10:51:10;;;;;;;7.53;4.20;;;25.60;26.00;;;;;;5015255;28;20826;-73
2022/09/04 10:53:51;;;;;;;4.93;4.40;;;25.60;25.80;;;;;;5014140;28;20878;-74
2022/09/04 10:56:25;;;;;;;8.83;4.20;;;25.80;24.80;;;;;;5015196;28;20389;-72
2022/09/04 10:59:24;;;;;;;7.40;5.00;;;26.00;24.70;;;;;;5015719;28;20405;-74
2022/09/04 11:02:31;;;;;;;6.43;4.35;;;26.10;23.60;;;;;;5015509;28;20405;-72
2022/09/04 11:05:06;;;;;;;7.15;4.20;;;26.40;22.20;;;;;;5015969;28;20984;-73
2022/09/04 11:08:08;;;;;;;6.95;3.90;;;26.40;23.00;;;;;;5015818;28;20385;-72
2022/09/04 11:10:46;;;;;;;6.65;3.80;;;26.40;22.10;;;;;;5015532;28;20384;-72
2022/09/04 11:13:30;;;;;;;10.55;3.80;;;26.50;21.90;;;;;;5013540;28;20393;-71
2022/09/04 11:15:59;;;;;;;4.53;3.60;;;26.70;20.60;;;;;;5018591;28;20384;-73
2022/09/04 11:19:02;;;;;;;6.95;3.50;;;26.70;20.10;;;;;;5017590;28;20392;-74
2022/09/04 11:21:37;;;;;;;5.05;3.10;;;26.60;20.00;;;;;;5016192;28;20428;-73
2022/09/04 11:24:40;;;;;;;4.28;3.40;;;26.70;20.30;;;;;;5015502;28;20431;-74
2022/09/04 11:27:37;;;;;;;4.30;3.00;;;27.00;19.90;;;;;;5014149;28;20746;-72
2022/09/04 11:30:15;;;;;;;5.10;3.25;;;27.00;19.20;;;;;;5010639;28;20399;-73
2022/09/04 11:32:57;;;;;;;2.80;2.60;;;27.10;18.80;;;;;;5014522;28;20472;-74
2022/09/04 11:35:56;;;;;;;3.33;2.78;;;27.10;18.30;;;;;;5015835;28;20424;-75
2022/09/04 11:39:02;;;;;;;3.35;3.05;;;27.20;17.90;;;;;;4997220;28;20384;-72
2022/09/04 11:41:49;;;;;;;4.05;2.90;;;27.60;17.40;;;;;;5014743;28;20408;-71
2022/09/04 11:44:24;;;;;;;6.57;3.00;;;27.70;16.90;;;;;;5015486;28;20803;-74
2022/09/04 11:47:10;;;;;;;3.35;3.05;;;27.60;16.90;;;;;;5018434;28;20419;-73
2022/09/04 11:50:15;;;;;;;5.43;2.95;;;27.50;17.10;;;;;;5014811;28;20385;-72
2022/09/04 11:53:04;;;;;;;3.40;3.00;;;27.30;17.40;;;;;;5013394;28;20698;-73
2022/09/04 11:55:57;;;;;;;7.10;3.30;;;27.20;17.90;;;;;;5014240;28;20451;-74
2022/09/04 11:58:32;;;;;;;3.90;2.93;;;27.10;18.00;;;;;;5013858;28;20483;-73
2022/09/04 12:01:25;;;;;;;2.70;2.50;;;27.30;17.50;;;;;;5015773;28;20419;-74
2022/09/04 12:03:53;;;;;;;3.13;2.80;;;27.30;17.00;;;;;;5018143;28;20470;-73
2022/09/04 12:06:37;;;;;;;4.15;2.90;;;27.30;17.00;;;;;;5018640;28;20381;-73
2022/09/04 12:09:52;;;;;;;3.88;2.55;;;27.30;17.30;;;;;;5023284;28;20850;-75
2022/09/04 12:12:40;;;;;;;5.88;3.05;;;27.50;16.30;;;;;;5010049;28;20476;-74
2022/09/04 12:15:25;;;;;;;3.67;2.67;;;27.50;16.50;;;;;;5017251;28;20381;-74
2022/09/04 12:18:19;;;;;;;2.43;2.20;;;27.40;16.20;;;;;;5018140;28;20426;-74
2022/09/04 12:21:07;;;;;;;4.40;2.50;;;27.50;15.60;;;;;;5015705;28;20462;-75
2022/09/04 12:24:06;;;;;;;4.15;2.30;;;27.60;15.20;;;;;;5014033;28;20389;-73
2022/09/04 12:26:43;;;;;;;4.15;2.30;;;27.50;15.10;;;;;;5013744;28;20377;-74
2022/09/04 12:29:33;;;;;;;3.33;2.30;;;27.50;15.00;;;;;;5014111;28;20483;-72
2022/09/04 12:32:13;;;;;;;3.70;2.10;;;27.60;14.90;;;;;;5013589;28;20961;-75
2022/09/04 12:35:10;;;;;;;3.15;2.08;;;27.70;14.50;;;;;;5013737;28;20439;-72
2022/09/04 12:37:58;;;;;;;5.75;2.60;;;27.90;14.10;;;;;;5014000;28;20389;-72
2022/09/04 12:40:50;;;;;;;8.85;3.00;;;28.20;14.30;;;;;;5014116;28;20909;-73
2022/09/04 12:43:47;;;;;;;2.60;2.40;;;28.30;14.10;;;;;;5014766;28;20450;-72
2022/09/04 12:46:56;;;;;;;3.30;2.50;;;28.40;14.50;;;;;;5014369;28;20392;-73
2022/09/04 12:49:40;;;;;;;4.78;2.30;;;28.80;12.90;;;;;;4966423;28;20439;-73
2022/09/04 12:52:24;;;;;;;6.82;2.80;;;28.80;12.70;;;;;;5013916;28;20408;-74
2022/09/04 12:55:11;;;;;;;5.15;2.10;;;29.00;13.00;;;;;;5013614;28;20478;-73
2022/09/04 12:57:54;;;;;;;4.63;1.88;;;29.10;12.00;;;;;;5015133;28;20384;-73
2022/09/04 13:00:21;;;;;;;4.43;2.00;;;28.90;12.10;;;;;;5014886;28;20400;-75
2022/09/04 13:02:58;;;;;;;2.47;2.28;;;28.90;12.00;;;;;;5015448;28;20454;-73
2022/09/04 13:05:36;;;;;;;4.00;2.30;;;29.00;12.30;;;;;;5015868;28;20439;-72
2022/09/04 13:08:26;;;;;;;3.47;2.30;;;29.40;11.60;;;;;;5021345;28;20393;-71
2022/09/04 13:11:12;;;;;;;2.45;2.25;;;29.50;11.40;;;;;;5027416;28;20408;-72
2022/09/04 13:14:06;;;;;;;3.80;2.00;;;29.70;11.30;;;;;;5027544;28;20484;-73
2022/09/04 13:16:56;;;;;;;3.70;2.25;;;30.10;10.90;;;;;;5016880;28;20745;-73
2022/09/04 13:19:45;;;;;;;3.00;2.40;;;30.50;9.60;;;;;;5013598;28;20885;-72
2022/09/04 13:22:31;;;;;;;5.03;2.20;;;30.80;8.90;;;;;;5013185;28;20413;-73
2022/09/04 13:25:09;;;;;;;2.60;2.30;;;30.80;8.80;;;;;;5013687;28;20425;-72
2022/09/04 13:28:15;;;;;;;4.43;2.40;;;30.90;9.00;;;;;;5013304;28;20385;-74
2022/09/04 13:31:04;;;;;;;4.93;2.27;;;31.10;8.20;;;;;;4980066;28;20453;-74
2022/09/04 13:33:50;;;;;;;3.08;2.20;;;31.50;6.90;;;;;;5013407;28;20384;-72
2022/09/04 13:36:34;;;;;;;4.25;1.90;;;32.00;6.50;;;;;;5014081;28;20388;-72
2022/09/04 13:39:19;;;;;;;2.47;1.88;;;32.80;4.30;;;;;;5013989;28;20399;-73
2022/09/04 13:42:00;;;;;;;3.20;1.85;;;33.20;3.20;;;;;;5013199;28;20413;-73
2022/09/04 13:44:43;;;;;;;1.90;1.80;;;33.40;2.60;;;;;;5013225;28;20400;-72
2022/09/04 13:47:15;;;;;;;2.10;1.80;;;33.40;2.20;;;;;;5013070;28;20455;-74
2022/09/04 13:49:53;;;;;;;3.13;1.90;;;33.10;2.80;;;;;;5012208;28;20389;-74
2022/09/04 13:52:54;;;;;;;2.28;1.80;;;33.20;2.80;;;;;;5013077;28;20857;-73
2022/09/04 13:55:32;;;;;;;2.92;1.70;;;33.10;2.80;;;;;;4981462;28;20397;-73
2022/09/04 13:58:09;;;;;;;2.00;1.70;;;32.80;3.00;;;;;;5012763;28;20389;-72
2022/09/04 14:00:38;;;;;;;8.23;1.95;;;32.70;3.40;;;;;;5012997;28;20385;-74
2022/09/04 14:03:13;;;;;;;2.35;1.80;;;33.20;2.80;;;;;;5028127;28;20881;-72
2022/09/04 14:05:40;;;;;;;1.90;1.73;;;33.80;2.10;;;;;;5013458;28;20389;-72
2022/09/04 14:08:13;;;;;;;1.67;1.55;;;34.10;1.10;;;;;;5013129;28;20377;-73
2022/09/04 14:11:14;;;;;;;2.50;1.67;;;34.10;1.50;;;;;;5012499;28;20432;-73
2022/09/04 14:13:57;;;;;;;5.57;1.80;;;34.00;1.40;;;;;;4952469;29;20402;-73
2022/09/04 14:16:23;;;;;;;2.25;1.92;;;33.80;1.50;;;;;;5007767;28;20404;-72
2022/09/04 14:19:16;;;;;;;4.03;1.83;;;33.40;2.10;;;;;;5012980;28;20396;-73
2022/09/04 14:22:02;;;;;;;2.13;1.70;;;33.50;1.20;;;;;;5012657;28;20463;-73
2022/09/04 14:24:42;;;;;;;4.43;2.00;;;33.10;2.00;;;;;;5020497;28;20399;-72